VILK/LKO METAR and TAF weather

Enter ICAO airport designator
Station Type Date Time Source
VILK METAR 2022/06/26 07:00 UTC NOAA

VILK 260700Z 12008KT 5000 HZ SCT020 SCT025 BKN100 36/27 Q1001 NOSIG


Station Type Date Time Source
VILK Decoded METAR 2022/06/26 07:00 UTC NOAA

Lucknow / Amausi, India (VILK) 26-45N 080-53E 128M
Jun 26, 2022 - 03:00 AM EDT / 2022.06.26 0700 UTC
Wind: from the ESE (120 degrees) at 9 MPH (8 KT):0
Visibility: 3 mile(s):0
Sky conditions: mostly cloudy
Weather: haze
Temperature: 96 F (36 C)
Heat index: 115.2 F (46.2 C):1
Dew Point: 80 F (27 C)
Relative Humidity: 59%
Pressure (altimeter): 29.56 in. Hg (1001 hPa)
ob: VILK 260700Z 12008KT 5000 HZ SCT020 SCT025 BKN100 36/27 Q1001 NOSIG
cycle: 7

Station Type Date Time Source
VILK TAF 2022/06/26 06:48 UTC NOAA

TAF VILK 260500Z 2606/2712 07008KT 4000 HZ FEW020 SCT100
TEMPO 2608/2612 07010G20KT 1500 -TSRA -RA FEW030CB OCV090
BECMG 2613/2615 09005KT 3000 HZ
BECMG 2706/2708 10006KT 5000 HZ
TEMPO 2708/2712 10010G20KT 1500 -TSRA -RA FEW030CB OCV090

Example: see airport list